Time;durP1;ratioP1;P1;durP2;ratioP2;P2;SDS_P1;SDS_P2;PMS_P1;PMS_P2;Temp;Humidity;BMP_temperature;BMP_pressure;BME280_temperature;BME280_humidity;BME280_pressure;Samples;Min_cycle;Max_cycle;Signal;HPM_P1;HPM_P2
2023/07/16 00:01:05;;;;;;;8.40;1.93;;;21.20;90.00;;;;;;5073842;28;20441;-55
2023/07/16 00:03:32;;;;;;;4.00;1.90;;;21.20;90.00;;;;;;5073676;28;20491;-55
2023/07/16 00:05:59;;;;;;;3.30;2.07;;;21.10;90.40;;;;;;5073744;28;20453;-55
2023/07/16 00:08:25;;;;;;;5.13;1.80;;;21.00;90.40;;;;;;5073654;28;20449;-55
2023/07/16 00:10:53;;;;;;;4.33;1.43;;;20.90;90.60;;;;;;5073629;28;20444;-55
2023/07/16 00:13:20;;;;;;;6.23;1.73;;;20.80;90.80;;;;;;5073145;28;20994;-55
2023/07/16 00:15:47;;;;;;;3.10;2.23;;;20.80;91.00;;;;;;5073501;28;20866;-55
2023/07/16 00:18:13;;;;;;;4.77;1.67;;;20.80;91.20;;;;;;5073395;28;20793;-55
2023/07/16 00:20:40;;;;;;;4.73;2.40;;;20.80;91.20;;;;;;5073565;28;20433;-55
2023/07/16 00:23:07;;;;;;;3.13;2.10;;;20.80;91.20;;;;;;5073399;28;20468;-55
2023/07/16 00:25:34;;;;;;;5.40;2.00;;;20.80;91.00;;;;;;5073437;28;20452;-55
2023/07/16 00:28:03;;;;;;;6.27;1.80;;;20.80;90.70;;;;;;5073331;28;20505;-55
2023/07/16 00:30:30;;;;;;;4.20;1.60;;;20.70;91.00;;;;;;5074073;28;20809;-55
2023/07/16 00:32:56;;;;;;;3.37;1.73;;;20.70;91.10;;;;;;5072974;28;20476;-55
2023/07/16 00:35:23;;;;;;;2.83;1.40;;;20.60;91.10;;;;;;5073313;28;20486;-55
2023/07/16 00:37:50;;;;;;;4.07;1.80;;;20.60;91.10;;;;;;5073348;28;20460;-55
2023/07/16 00:40:16;;;;;;;10.43;2.73;;;20.60;91.20;;;;;;5073289;28;20483;-55
2023/07/16 00:42:43;;;;;;;4.00;1.83;;;20.70;91.20;;;;;;5073154;28;20444;-55
2023/07/16 00:45:14;;;;;;;3.23;2.00;;;20.70;91.00;;;;;;5072914;28;20934;-55
2023/07/16 00:47:41;;;;;;;9.57;2.17;;;20.70;91.10;;;;;;5072878;28;21014;-55
2023/07/16 00:50:09;;;;;;;4.60;2.27;;;20.60;91.00;;;;;;5076863;28;20457;-55
2023/07/16 00:52:36;;;;;;;2.37;1.90;;;20.60;91.30;;;;;;5077271;28;20479;-55
2023/07/16 00:55:03;;;;;;;9.63;2.63;;;20.60;91.30;;;;;;5077166;28;20476;-55
2023/07/16 00:57:31;;;;;;;7.83;1.97;;;20.70;91.40;;;;;;5077261;28;20444;-55
2023/07/16 00:59:58;;;;;;;5.20;3.03;;;20.70;91.30;;;;;;5077229;28;20539;-55
2023/07/16 01:02:26;;;;;;;7.90;2.20;;;20.70;91.80;;;;;;5076771;28;20848;-55
2023/07/16 01:04:53;;;;;;;4.77;1.97;;;20.80;91.20;;;;;;5054942;22;20485;-70
2023/07/16 01:07:24;;;;;;;4.00;1.80;;;20.80;91.10;;;;;;5037065;28;20829;-69
2023/07/16 01:09:52;;;;;;;4.03;1.50;;;20.90;91.00;;;;;;5037239;28;20462;-69
2023/07/16 01:12:22;;;;;;;7.93;2.07;;;21.00;90.90;;;;;;5037082;28;20526;-70
2023/07/16 01:14:51;;;;;;;2.90;1.47;;;21.00;90.80;;;;;;5037023;28;20434;-69
2023/07/16 01:17:18;;;;;;;5.30;2.10;;;21.10;90.40;;;;;;5037003;28;20481;-70
2023/07/16 01:19:46;;;;;;;5.70;1.90;;;21.10;90.20;;;;;;5036373;28;20481;-70
2023/07/16 01:22:44;;;;;;;5.53;1.93;;;21.10;90.00;;;;;;5036838;28;20454;-70
2023/07/16 01:25:34;;;;;;;4.40;1.77;;;21.10;90.00;;;;;;5032432;28;20454;-70
2023/07/16 01:28:22;;;;;;;7.90;2.00;;;21.10;89.90;;;;;;5036851;28;20778;-70
2023/07/16 01:30:53;;;;;;;3.47;1.83;;;21.20;89.70;;;;;;5036756;28;20525;-70
2023/07/16 01:33:21;;;;;;;3.13;1.83;;;21.10;89.60;;;;;;5036913;28;20434;-69
2023/07/16 01:35:49;;;;;;;3.70;1.90;;;21.10;89.70;;;;;;5036379;28;20478;-70
2023/07/16 01:38:18;;;;;;;6.27;1.90;;;21.10;89.90;;;;;;5036609;28;20549;-70
2023/07/16 01:40:45;;;;;;;4.50;2.03;;;21.00;90.00;;;;;;5036548;28;20470;-70
2023/07/16 01:43:12;;;;;;;7.67;2.07;;;21.00;90.10;;;;;;5036609;28;20446;-70
2023/07/16 01:45:39;;;;;;;3.40;1.97;;;20.90;90.20;;;;;;5036312;28;20443;-70
2023/07/16 01:48:15;;;;;;;4.10;1.77;;;20.90;90.30;;;;;;5036552;28;20465;-70
2023/07/16 01:50:43;;;;;;;3.13;1.73;;;20.90;90.50;;;;;;5036451;28;20502;-70
2023/07/16 01:53:11;;;;;;;5.77;1.97;;;20.90;90.50;;;;;;5041415;28;20446;-70
2023/07/16 01:55:37;;;;;;;6.53;1.80;;;20.90;90.30;;;;;;5047827;28;20482;-69
2023/07/16 01:58:05;;;;;;;6.63;2.00;;;20.80;90.40;;;;;;5042419;28;20442;-70
2023/07/16 02:00:32;;;;;;;9.30;2.90;;;20.80;90.40;;;;;;5040309;28;20478;-70
2023/07/16 02:02:59;;;;;;;6.90;2.10;;;20.70;90.40;;;;;;5039318;28;20446;-70
2023/07/16 02:05:29;;;;;;;5.27;2.50;;;20.70;90.50;;;;;;5037064;28;20435;-70
2023/07/16 02:07:56;;;;;;;6.90;2.00;;;20.60;90.30;;;;;;5041128;28;20435;-70
2023/07/16 02:10:23;;;;;;;6.00;1.90;;;20.50;90.30;;;;;;5042761;28;20537;-71
2023/07/16 02:12:50;;;;;;;9.93;2.50;;;20.60;90.50;;;;;;5037234;28;20454;-70
2023/07/16 02:15:17;;;;;;;3.63;1.57;;;20.60;90.40;;;;;;5036104;28;20454;-69
2023/07/16 02:17:44;;;;;;;10.27;2.07;;;20.50;90.20;;;;;;5035680;28;20446;-70
2023/07/16 02:20:12;;;;;;;4.40;2.03;;;20.40;90.20;;;;;;5035935;28;20463;-70
2023/07/16 02:22:40;;;;;;;7.40;1.90;;;20.50;90.20;;;;;;5036140;28;20468;-70
2023/07/16 02:25:07;;;;;;;7.17;2.43;;;20.40;90.00;;;;;;5035554;28;20966;-70
2023/07/16 02:27:34;;;;;;;7.83;2.50;;;20.30;89.80;;;;;;5035933;28;20442;-70
2023/07/16 02:30:01;;;;;;;7.70;2.40;;;20.30;90.10;;;;;;5036400;28;20474;-70
2023/07/16 02:32:28;;;;;;;5.83;2.10;;;20.20;89.30;;;;;;5041556;28;20477;-70
2023/07/16 02:34:55;;;;;;;4.73;2.00;;;20.20;89.80;;;;;;5037948;28;20442;-70
2023/07/16 02:37:24;;;;;;;5.50;1.77;;;20.20;89.10;;;;;;5035637;28;20493;-70
2023/07/16 02:39:52;;;;;;;4.50;2.00;;;20.20;89.10;;;;;;5035195;28;20975;-70
2023/07/16 02:42:19;;;;;;;6.43;1.97;;;20.10;89.20;;;;;;5035492;28;20446;-70
2023/07/16 02:44:46;;;;;;;7.53;2.10;;;20.10;88.40;;;;;;5035347;28;20450;-70
2023/07/16 02:47:12;;;;;;;4.50;2.47;;;20.10;88.50;;;;;;5035413;28;20447;-70
2023/07/16 02:49:39;;;;;;;4.10;1.93;;;20.10;88.50;;;;;;5035582;28;20451;-70
2023/07/16 02:52:07;;;;;;;7.40;2.87;;;20.10;87.80;;;;;;5035320;28;21094;-70
2023/07/16 02:54:33;;;;;;;5.83;1.80;;;20.10;87.50;;;;;;5035455;28;20454;-70
2023/07/16 02:57:02;;;;;;;4.97;1.57;;;20.00;87.30;;;;;;5035621;28;20474;-70
2023/07/16 02:59:29;;;;;;;8.00;2.20;;;19.90;87.20;;;;;;5035159;28;20478;-70
2023/07/16 03:01:56;;;;;;;5.70;1.50;;;19.90;87.40;;;;;;5035148;28;20540;-70
2023/07/16 03:04:22;;;;;;;6.30;2.33;;;19.80;87.10;;;;;;5034674;28;20467;-70
2023/07/16 03:06:49;;;;;;;3.90;1.70;;;19.80;86.50;;;;;;5034759;28;20469;-70
2023/07/16 03:09:16;;;;;;;4.43;2.43;;;19.80;86.40;;;;;;5034982;28;20446;-70
2023/07/16 03:11:46;;;;;;;6.60;1.90;;;19.80;85.90;;;;;;5034332;28;20472;-70
2023/07/16 03:14:14;;;;;;;4.37;2.00;;;19.70;85.80;;;;;;5035205;28;20541;-70
2023/07/16 03:16:41;;;;;;;7.97;2.47;;;19.70;86.50;;;;;;5036383;28;20487;-69
2023/07/16 03:19:07;;;;;;;9.27;2.30;;;19.80;86.60;;;;;;5040044;28;20446;-69
2023/07/16 03:21:34;;;;;;;5.10;2.13;;;19.80;86.10;;;;;;5035186;28;20478;-70
2023/07/16 03:24:01;;;;;;;4.73;1.87;;;19.80;85.50;;;;;;5033439;28;20974;-69
2023/07/16 03:26:28;;;;;;;5.67;2.13;;;19.80;85.10;;;;;;5034582;28;20813;-69
2023/07/16 03:28:55;;;;;;;5.70;2.03;;;19.80;85.10;;;;;;5034594;28;20500;-70
2023/07/16 03:31:23;;;;;;;6.07;2.17;;;19.80;84.70;;;;;;5034486;28;20524;-69
2023/07/16 03:33:49;;;;;;;5.00;1.87;;;19.80;84.60;;;;;;5034410;28;20447;-69
2023/07/16 03:36:18;;;;;;;3.53;1.97;;;19.80;84.60;;;;;;5034061;28;21011;-70
2023/07/16 03:38:45;;;;;;;4.80;1.90;;;19.70;83.50;;;;;;5033116;28;20529;-69
2023/07/16 03:41:12;;;;;;;6.27;2.30;;;19.70;83.60;;;;;;5034343;28;20850;-70
2023/07/16 03:43:39;;;;;;;3.50;2.00;;;19.60;84.60;;;;;;5034073;28;20482;-70
2023/07/16 03:46:08;;;;;;;7.83;2.00;;;19.70;83.70;;;;;;5034187;28;20447;-70
2023/07/16 03:48:36;;;;;;;3.30;1.87;;;19.60;83.20;;;;;;5034347;28;20454;-70
2023/07/16 03:51:02;;;;;;;4.80;2.30;;;19.60;82.80;;;;;;5034180;28;20510;-69
2023/07/16 03:53:29;;;;;;;5.27;2.40;;;19.60;82.60;;;;;;5034367;28;20461;-69
2023/07/16 03:55:56;;;;;;;6.50;2.57;;;19.50;83.20;;;;;;5033869;28;20459;-70
2023/07/16 03:58:23;;;;;;;7.87;2.73;;;19.50;83.40;;;;;;5033977;28;20841;-69
2023/07/16 04:00:50;;;;;;;8.73;2.40;;;19.50;83.30;;;;;;5033897;28;20471;-70
2023/07/16 04:03:17;;;;;;;5.37;2.50;;;19.50;82.60;;;;;;5033898;28;20502;-69
2023/07/16 04:05:45;;;;;;;6.83;2.47;;;19.50;82.60;;;;;;5033916;28;20446;-69
2023/07/16 04:08:11;;;;;;;5.90;2.07;;;19.50;82.70;;;;;;5034057;28;20446;-69
2023/07/16 04:10:38;;;;;;;4.60;2.40;;;19.50;82.60;;;;;;5034784;28;20852;-69
2023/07/16 04:13:05;;;;;;;9.33;2.63;;;19.50;82.40;;;;;;5041028;28;20457;-69
2023/07/16 04:15:32;;;;;;;4.03;2.47;;;19.50;82.60;;;;;;5042838;28;20454;-69
2023/07/16 04:17:58;;;;;;;5.73;2.40;;;19.50;82.40;;;;;;5037123;28;20486;-69
2023/07/16 04:20:25;;;;;;;8.20;2.77;;;19.60;81.80;;;;;;5036389;28;20466;-69
2023/07/16 04:22:53;;;;;;;6.13;2.27;;;19.60;82.00;;;;;;5034809;28;20446;-69
2023/07/16 04:25:20;;;;;;;7.80;2.67;;;19.60;82.10;;;;;;5034288;28;20453;-69
2023/07/16 04:27:47;;;;;;;4.17;2.63;;;19.60;81.40;;;;;;5033993;28;20463;-69
2023/07/16 04:30:14;;;;;;;7.47;2.70;;;19.60;81.10;;;;;;5032886;28;20470;-69
2023/07/16 04:32:41;;;;;;;3.50;2.90;;;19.60;81.20;;;;;;5033481;28;20874;-69
2023/07/16 04:35:08;;;;;;;4.43;2.40;;;19.60;81.30;;;;;;5033695;28;20446;-70
2023/07/16 04:37:35;;;;;;;5.47;2.40;;;19.60;82.00;;;;;;5033641;28;20478;-70
2023/07/16 04:40:04;;;;;;;4.70;2.47;;;19.60;82.00;;;;;;5033211;28;20474;-69
2023/07/16 04:42:31;;;;;;;8.57;2.70;;;19.60;81.70;;;;;;5033813;28;20442;-69
2023/07/16 04:44:57;;;;;;;9.10;3.30;;;19.60;81.60;;;;;;5033474;28;20446;-69
2023/07/16 04:47:24;;;;;;;9.47;2.90;;;19.60;81.80;;;;;;5033342;28;20450;-69
2023/07/16 04:49:51;;;;;;;8.40;2.30;;;19.60;81.90;;;;;;5037450;28;20560;-69
2023/07/16 04:52:17;;;;;;;9.20;2.67;;;19.60;81.30;;;;;;5037779;28;20446;-69
2023/07/16 04:54:44;;;;;;;11.60;3.00;;;19.60;81.10;;;;;;5033862;28;20446;-69
2023/07/16 04:57:12;;;;;;;5.43;2.97;;;19.60;81.30;;;;;;5033646;28;20490;-69
2023/07/16 04:59:39;;;;;;;6.87;2.40;;;19.60;81.00;;;;;;5033494;28;20473;-70
2023/07/16 05:02:06;;;;;;;7.40;3.17;;;19.60;81.30;;;;;;5033371;28;20446;-69
2023/07/16 05:04:33;;;;;;;8.27;3.80;;;19.60;81.30;;;;;;5033042;28;20442;-69
2023/07/16 05:07:01;;;;;;;6.40;2.87;;;19.60;80.80;;;;;;5033204;28;20453;-69
2023/07/16 05:09:28;;;;;;;4.27;2.67;;;19.60;80.90;;;;;;5033550;28;20450;-70
2023/07/16 05:11:55;;;;;;;5.40;2.50;;;19.60;81.20;;;;;;5033465;28;20452;-69
2023/07/16 05:14:23;;;;;;;6.00;3.40;;;19.60;80.90;;;;;;5032983;28;20820;-69
2023/07/16 05:16:50;;;;;;;8.20;3.50;;;19.60;80.70;;;;;;5033410;28;20493;-69
2023/07/16 05:19:17;;;;;;;5.90;2.90;;;19.60;80.10;;;;;;5033092;28;20450;-69
2023/07/16 05:21:44;;;;;;;6.30;3.00;;;19.70;80.30;;;;;;5032115;28;20474;-69
2023/07/16 05:24:11;;;;;;;5.80;3.20;;;19.70;79.60;;;;;;5032916;28;20450;-69
2023/07/16 05:26:38;;;;;;;4.90;2.80;;;19.60;79.30;;;;;;5033100;28;20450;-70
2023/07/16 05:29:05;;;;;;;5.43;2.97;;;19.60;78.90;;;;;;5032948;28;20477;-69
2023/07/16 05:31:33;;;;;;;6.70;4.03;;;19.70;79.40;;;;;;5033003;28;20462;-70
2023/07/16 05:34:00;;;;;;;5.90;3.70;;;19.70;79.00;;;;;;5031693;28;20542;-69
2023/07/16 05:36:27;;;;;;;10.30;3.80;;;19.70;78.00;;;;;;5037299;28;20450;-69
2023/07/16 05:38:54;;;;;;;7.00;4.40;;;19.70;77.30;;;;;;5036864;28;20803;-70
2023/07/16 05:41:20;;;;;;;5.30;3.23;;;19.70;77.80;;;;;;5036828;28;20488;-70
2023/07/16 05:43:47;;;;;;;9.23;3.87;;;19.70;76.90;;;;;;5036731;28;20442;-70
2023/07/16 05:46:15;;;;;;;8.60;4.10;;;19.70;76.80;;;;;;5036643;28;20457;-70
2023/07/16 05:48:44;;;;;;;7.27;4.03;;;19.70;77.00;;;;;;5036649;28;20485;-69
2023/07/16 05:51:11;;;;;;;11.33;4.90;;;19.80;75.90;;;;;;5036859;28;20466;-70
2023/07/16 05:53:39;;;;;;;7.97;4.10;;;19.80;75.30;;;;;;5036671;28;20451;-69
2023/07/16 05:56:06;;;;;;;5.47;4.47;;;19.80;76.30;;;;;;5037402;28;20454;-70
2023/07/16 05:58:33;;;;;;;6.97;4.30;;;19.80;75.20;;;;;;5036707;28;20853;-69
2023/07/16 06:00:59;;;;;;;9.73;4.70;;;19.90;74.70;;;;;;5035085;28;20528;-70
2023/07/16 06:03:26;;;;;;;8.40;4.40;;;20.00;74.70;;;;;;5036502;28;20461;-69
2023/07/16 06:05:54;;;;;;;16.07;4.63;;;19.90;73.70;;;;;;5037080;28;20435;-69
2023/07/16 06:08:21;;;;;;;7.20;3.70;;;19.90;72.70;;;;;;5037938;28;20442;-69
2023/07/16 06:10:48;;;;;;;10.30;4.43;;;20.00;72.30;;;;;;5038621;28;20469;-69
2023/07/16 06:13:15;;;;;;;10.77;4.13;;;20.10;72.80;;;;;;5039608;28;20978;-69
2023/07/16 06:15:42;;;;;;;7.70;4.50;;;20.10;73.00;;;;;;5038077;28;20451;-69
2023/07/16 06:18:09;;;;;;;6.80;4.70;;;20.10;71.30;;;;;;5036323;28;20481;-69
2023/07/16 06:20:36;;;;;;;11.00;4.73;;;20.10;71.40;;;;;;5036463;28;20509;-69
2023/07/16 06:23:04;;;;;;;8.90;4.50;;;20.20;71.40;;;;;;5036804;28;20453;-69
2023/07/16 06:25:31;;;;;;;10.17;4.60;;;20.30;71.20;;;;;;5035938;28;20462;-69
2023/07/16 06:27:58;;;;;;;7.10;4.60;;;20.30;70.60;;;;;;5037186;28;20469;-69
2023/07/16 06:30:25;;;;;;;8.93;5.00;;;20.40;68.40;;;;;;5043332;28;20534;-69
2023/07/16 06:32:51;;;;;;;11.07;4.90;;;20.50;68.30;;;;;;5045973;28;20449;-69
2023/07/16 06:35:18;;;;;;;12.17;4.40;;;20.50;67.90;;;;;;5042563;28;20445;-69
2023/07/16 06:37:47;;;;;;;9.50;5.10;;;20.50;67.60;;;;;;5041185;28;20489;-70
2023/07/16 06:40:15;;;;;;;13.10;5.33;;;20.50;67.90;;;;;;5038099;28;20842;-69
2023/07/16 06:42:42;;;;;;;8.80;5.10;;;20.60;67.70;;;;;;5036848;28;20450;-70
2023/07/16 06:45:09;;;;;;;9.20;5.40;;;20.70;67.40;;;;;;5039375;28;20447;-69
2023/07/16 06:47:36;;;;;;;10.23;5.40;;;20.70;65.40;;;;;;5044341;28;20442;-71
2023/07/16 06:50:03;;;;;;;10.27;5.00;;;20.70;63.80;;;;;;5039858;28;20466;-70
2023/07/16 06:52:30;;;;;;;9.80;5.43;;;20.70;65.40;;;;;;5035959;28;20482;-71
2023/07/16 06:54:58;;;;;;;10.90;5.80;;;20.70;65.90;;;;;;5036860;28;20441;-69
2023/07/16 06:57:26;;;;;;;9.50;5.80;;;20.70;65.70;;;;;;5037480;28;20548;-70
2023/07/16 06:59:52;;;;;;;9.90;4.83;;;20.70;65.40;;;;;;5036571;28;20466;-70
2023/07/16 07:02:20;;;;;;;19.03;5.27;;;20.70;64.80;;;;;;5037589;28;20513;-69
2023/07/16 07:04:47;;;;;;;10.73;5.70;;;20.70;66.20;;;;;;5044484;28;20458;-68
2023/07/16 07:07:16;;;;;;;10.20;4.30;;;20.90;65.40;;;;;;5047490;28;20815;-68
2023/07/16 07:09:48;;;;;;;11.17;5.37;;;20.90;64.10;;;;;;5036304;28;20483;-67
2023/07/16 07:12:14;;;;;;;14.23;5.10;;;20.90;64.80;;;;;;5024526;28;20428;-68
2023/07/16 07:14:44;;;;;;;10.63;5.10;;;21.00;63.40;;;;;;5024110;28;20919;-68
2023/07/16 07:17:10;;;;;;;11.50;4.80;;;20.90;63.20;;;;;;5024135;28;20487;-68
2023/07/16 07:19:38;;;;;;;7.00;5.20;;;20.90;63.90;;;;;;5023827;28;20470;-67
2023/07/16 07:22:06;;;;;;;9.17;4.80;;;21.10;63.50;;;;;;5023608;28;20458;-68
2023/07/16 07:24:33;;;;;;;9.27;5.83;;;21.20;63.00;;;;;;5023851;28;20451;-69
2023/07/16 07:27:00;;;;;;;8.90;5.77;;;21.30;63.50;;;;;;5020950;28;20455;-68
2023/07/16 07:29:28;;;;;;;11.03;4.90;;;21.40;61.20;;;;;;5023054;28;20466;-67
2023/07/16 07:31:56;;;;;;;11.03;5.27;;;21.50;61.60;;;;;;5023285;28;20997;-68
2023/07/16 07:34:26;;;;;;;9.07;4.33;;;21.60;61.20;;;;;;5023423;28;20458;-68
2023/07/16 07:36:52;;;;;;;8.07;4.97;;;21.60;60.10;;;;;;5021997;28;20486;-68
2023/07/16 07:39:19;;;;;;;13.83;5.70;;;21.70;60.20;;;;;;5024061;28;20447;-69
2023/07/16 07:41:48;;;;;;;8.40;4.60;;;21.60;59.80;;;;;;5023528;28;20464;-69
2023/07/16 07:44:16;;;;;;;11.30;5.50;;;21.70;60.80;;;;;;5023598;28;20452;-69
2023/07/16 07:46:45;;;;;;;7.77;4.70;;;21.90;60.70;;;;;;5023760;28;20454;-68
2023/07/16 07:49:13;;;;;;;10.93;5.37;;;22.00;59.40;;;;;;5023013;28;20444;-68
2023/07/16 07:51:40;;;;;;;9.57;4.87;;;22.10;58.90;;;;;;5023314;28;20481;-68
2023/07/16 07:54:08;;;;;;;9.80;4.33;;;22.20;58.10;;;;;;5023718;28;20447;-69
2023/07/16 07:56:34;;;;;;;8.47;4.90;;;22.30;58.00;;;;;;5023329;28;20488;-68
2023/07/16 07:59:02;;;;;;;5.27;4.50;;;22.40;57.50;;;;;;5022747;28;21034;-68
2023/07/16 08:01:30;;;;;;;10.53;5.40;;;22.40;57.70;;;;;;5023274;28;20550;-67
2023/07/16 08:03:56;;;;;;;10.40;5.03;;;22.70;57.60;;;;;;5021832;28;20470;-67
2023/07/16 08:06:26;;;;;;;6.90;4.73;;;22.70;56.80;;;;;;5022633;28;20450;-68
2023/07/16 08:08:54;;;;;;;13.80;5.30;;;22.80;56.60;;;;;;5022397;28;20832;-69
2023/07/16 08:11:22;;;;;;;10.87;4.47;;;22.90;56.30;;;;;;5023126;28;20474;-68
2023/07/16 08:13:50;;;;;;;11.10;4.73;;;23.00;55.40;;;;;;5023251;28;20451;-66
2023/07/16 08:16:17;;;;;;;7.37;3.87;;;23.20;55.40;;;;;;5022735;28;20458;-67
2023/07/16 08:18:45;;;;;;;7.83;4.10;;;23.30;54.70;;;;;;5021786;28;20487;-68
2023/07/16 08:21:19;;;;;;;9.00;5.10;;;23.50;54.10;;;;;;5022251;28;20475;-67
2023/07/16 08:23:48;;;;;;;8.00;4.27;;;23.70;53.60;;;;;;5022854;28;20439;-68
2023/07/16 08:26:16;;;;;;;11.37;3.63;;;23.60;52.40;;;;;;5023115;28;20452;-69
2023/07/16 08:28:43;;;;;;;8.37;4.80;;;23.60;53.00;;;;;;5023995;28;20809;-69
2023/07/16 08:31:14;;;;;;;7.60;4.30;;;23.50;53.40;;;;;;5023472;28;20471;-68
2023/07/16 08:33:42;;;;;;;8.73;4.27;;;23.50;53.00;;;;;;5027472;28;20470;-69
2023/07/16 08:36:11;;;;;;;10.13;4.27;;;23.60;52.00;;;;;;5031124;28;20443;-69
2023/07/16 08:38:37;;;;;;;10.40;4.30;;;23.80;52.00;;;;;;5027463;28;20519;-69
2023/07/16 08:41:08;;;;;;;8.00;4.17;;;24.10;51.90;;;;;;5024139;28;20490;-68
2023/07/16 08:43:35;;;;;;;8.70;3.80;;;24.30;51.30;;;;;;5023787;28;20438;-68
2023/07/16 08:46:03;;;;;;;7.63;4.00;;;24.70;51.30;;;;;;5026111;28;20474;-69
2023/07/16 08:48:32;;;;;;;16.67;5.60;;;24.80;49.40;;;;;;5032279;28;20448;-69
2023/07/16 08:51:02;;;;;;;9.70;3.50;;;24.70;49.70;;;;;;5029768;28;20463;-68
2023/07/16 08:53:30;;;;;;;6.10;4.23;;;24.80;50.50;;;;;;5027078;28;20431;-69
2023/07/16 08:56:05;;;;;;;7.10;4.40;;;24.80;48.50;;;;;;5024563;28;20451;-69
2023/07/16 08:58:33;;;;;;;13.33;4.70;;;24.70;49.30;;;;;;5024256;28;20561;-69
2023/07/16 09:01:01;;;;;;;13.87;4.80;;;24.70;49.90;;;;;;5023287;28;20471;-68
2023/07/16 09:03:31;;;;;;;10.00;4.20;;;24.90;50.60;;;;;;5022126;28;20439;-69
2023/07/16 09:06:00;;;;;;;8.93;4.20;;;24.90;48.50;;;;;;5022392;28;20463;-69
2023/07/16 09:08:28;;;;;;;7.20;4.80;;;24.90;48.20;;;;;;5021813;28;20452;-69
2023/07/16 09:10:59;;;;;;;9.47;3.83;;;25.10;49.40;;;;;;5025780;28;20498;-68
2023/07/16 09:13:28;;;;;;;7.03;4.00;;;25.40;47.90;;;;;;5026413;28;20458;-69
2023/07/16 09:15:57;;;;;;;9.07;3.63;;;25.80;47.00;;;;;;5026147;28;20450;-68
2023/07/16 09:18:26;;;;;;;7.27;4.20;;;25.90;45.80;;;;;;5025340;28;20486;-68
2023/07/16 09:20:57;;;;;;;10.20;4.37;;;26.10;45.80;;;;;;5025748;28;20471;-68
2023/07/16 09:23:26;;;;;;;9.67;3.40;;;26.00;45.80;;;;;;5027934;28;20435;-69
2023/07/16 09:25:54;;;;;;;10.47;3.90;;;25.90;45.00;;;;;;5028764;28;20544;-69
2023/07/16 09:28:22;;;;;;;8.20;3.70;;;25.70;46.00;;;;;;5026206;28;20470;-68
2023/07/16 09:30:53;;;;;;;11.43;3.90;;;25.60;46.50;;;;;;5026414;28;20471;-68
2023/07/16 09:33:25;;;;;;;13.00;4.40;;;25.50;46.70;;;;;;5026344;28;20873;-69
2023/07/16 09:35:57;;;;;;;8.60;4.20;;;25.40;47.30;;;;;;5025452;28;20443;-69
2023/07/16 09:38:27;;;;;;;6.60;3.97;;;25.30;46.60;;;;;;5024995;28;20482;-68
2023/07/16 09:40:56;;;;;;;11.67;3.67;;;25.40;47.70;;;;;;5026245;28;20471;-68
2023/07/16 09:43:23;;;;;;;8.50;3.40;;;25.50;46.80;;;;;;5024458;28;20455;-69
2023/07/16 09:45:50;;;;;;;9.23;4.10;;;25.80;46.30;;;;;;5025774;28;20461;-68
2023/07/16 09:48:19;;;;;;;7.13;3.53;;;26.00;46.30;;;;;;5025447;28;20807;-69
2023/07/16 09:50:52;;;;;;;7.47;4.10;;;26.40;45.70;;;;;;5025459;28;20467;-68
2023/07/16 09:53:21;;;;;;;7.90;3.93;;;26.70;44.40;;;;;;5025842;28;20436;-69
2023/07/16 09:55:50;;;;;;;7.03;4.50;;;26.70;43.90;;;;;;5025070;28;20474;-68
2023/07/16 09:58:20;;;;;;;6.33;4.33;;;26.50;44.00;;;;;;5026180;28;20498;-69
2023/07/16 10:00:49;;;;;;;5.63;4.13;;;26.70;44.40;;;;;;5024714;28;20467;-68
2023/07/16 10:03:17;;;;;;;5.47;3.80;;;26.80;43.40;;;;;;5024362;28;20479;-69
2023/07/16 10:05:44;;;;;;;7.00;3.60;;;27.10;42.80;;;;;;5024474;28;20458;-69
2023/07/16 10:08:19;;;;;;;3.60;3.30;;;27.40;43.30;;;;;;5023634;28;20455;-68
2023/07/16 10:10:48;;;;;;;5.83;3.93;;;27.90;43.50;;;;;;5024320;28;20470;-69
2023/07/16 10:13:16;;;;;;;9.27;4.03;;;28.20;40.40;;;;;;5025160;28;20467;-69
2023/07/16 10:15:56;;;;;;;6.17;3.00;;;27.80;39.70;;;;;;5024942;28;20447;-69
2023/07/16 10:18:30;;;;;;;8.03;3.77;;;27.10;40.20;;;;;;5024903;28;20475;-70
2023/07/16 10:21:05;;;;;;;8.27;4.73;;;26.80;42.00;;;;;;5024515;28;20471;-68
2023/07/16 10:23:40;;;;;;;5.33;3.93;;;26.40;41.20;;;;;;5025793;28;20428;-69
2023/07/16 10:26:09;;;;;;;7.73;4.03;;;26.10;43.10;;;;;;5025161;28;20450;-69
2023/07/16 10:28:37;;;;;;;10.70;4.40;;;26.20;42.60;;;;;;5024391;28;20471;-69
2023/07/16 10:31:07;;;;;;;5.00;3.37;;;26.20;42.20;;;;;;5025469;28;20478;-68
2023/07/16 10:33:37;;;;;;;8.03;4.27;;;26.40;42.10;;;;;;5024960;28;20427;-69
2023/07/16 10:36:05;;;;;;;5.93;4.03;;;26.80;42.30;;;;;;5023655;28;20539;-69
2023/07/16 10:38:43;;;;;;;7.87;3.87;;;27.40;41.10;;;;;;5025143;28;20490;-69
2023/07/16 10:41:09;;;;;;;7.03;3.67;;;28.30;39.40;;;;;;5025403;28;20473;-69
2023/07/16 10:43:40;;;;;;;4.63;3.30;;;29.00;37.40;;;;;;5024841;28;20458;-69
2023/07/16 10:46:10;;;;;;;9.47;3.77;;;29.50;35.10;;;;;;5024740;28;20448;-69
2023/07/16 10:48:40;;;;;;;11.27;4.30;;;29.50;35.40;;;;;;5024964;28;20439;-69
2023/07/16 10:51:08;;;;;;;4.40;3.97;;;29.20;35.20;;;;;;5024829;28;20467;-69
2023/07/16 10:53:41;;;;;;;4.60;3.27;;;28.90;36.50;;;;;;5025024;28;20455;-69
2023/07/16 10:56:11;;;;;;;12.87;4.10;;;29.50;36.50;;;;;;5025451;28;20431;-70
2023/07/16 10:58:40;;;;;;;8.10;4.17;;;30.40;34.20;;;;;;5023143;28;20490;-70
2023/07/16 11:01:09;;;;;;;4.57;3.40;;;30.40;33.50;;;;;;5028269;28;20471;-68
2023/07/16 11:03:36;;;;;;;6.43;3.70;;;30.20;34.90;;;;;;5034583;28;20447;-67
2023/07/16 11:06:07;;;;;;;6.77;3.03;;;30.20;34.30;;;;;;5031311;28;20451;-68
2023/07/16 11:08:36;;;;;;;5.40;3.33;;;30.30;34.50;;;;;;5029632;28;20455;-68
2023/07/16 11:11:07;;;;;;;5.53;3.23;;;30.50;33.10;;;;;;5029101;28;20471;-68
2023/07/16 11:13:37;;;;;;;8.97;4.07;;;30.60;33.10;;;;;;5027481;28;20548;-68
2023/07/16 11:16:08;;;;;;;4.80;3.13;;;29.80;33.60;;;;;;5027169;28;20439;-68
2023/07/16 11:18:39;;;;;;;10.63;4.10;;;29.20;34.50;;;;;;5026981;28;20471;-67
2023/07/16 11:21:06;;;;;;;6.77;3.80;;;29.30;36.70;;;;;;5027010;28;20560;-68
2023/07/16 11:23:39;;;;;;;12.00;4.17;;;29.50;35.20;;;;;;5027199;28;20455;-69
2023/07/16 11:26:06;;;;;;;5.67;2.90;;;29.80;33.60;;;;;;5032561;28;20447;-69
2023/07/16 11:28:43;;;;;;;6.07;3.33;;;30.70;34.60;;;;;;5030131;28;20449;-70
2023/07/16 11:31:17;;;;;;;5.53;3.40;;;31.00;32.60;;;;;;5027598;28;20463;-69
2023/07/16 11:33:46;;;;;;;11.77;3.80;;;30.70;33.30;;;;;;5024699;28;20430;-70
2023/07/16 11:36:14;;;;;;;7.73;3.43;;;30.20;33.20;;;;;;5025735;28;20975;-69
2023/07/16 11:38:41;;;;;;;7.27;3.17;;;29.70;34.30;;;;;;5029426;28;20543;-70
2023/07/16 11:41:08;;;;;;;12.90;3.73;;;29.30;35.10;;;;;;5035052;28;20466;-70
2023/07/16 11:43:36;;;;;;;5.03;3.73;;;28.90;35.10;;;;;;5044464;28;20454;-70
2023/07/16 11:46:05;;;;;;;9.20;3.60;;;28.40;36.10;;;;;;5043366;28;20458;-69
2023/07/16 11:48:32;;;;;;;6.50;3.47;;;28.10;37.10;;;;;;5042962;28;20451;-69
2023/07/16 11:51:02;;;;;;;7.27;3.50;;;27.90;37.30;;;;;;5043076;28;20470;-69
2023/07/16 11:53:28;;;;;;;6.17;3.97;;;27.70;38.20;;;;;;5043891;28;20453;-70
2023/07/16 11:55:55;;;;;;;4.83;3.30;;;27.60;37.80;;;;;;5041539;28;20489;-69
2023/07/16 11:58:22;;;;;;;7.50;3.67;;;27.30;37.70;;;;;;5041920;28;20465;-69
2023/07/16 12:00:53;;;;;;;9.03;3.87;;;27.20;38.60;;;;;;5042049;28;20471;-68
2023/07/16 12:03:21;;;;;;;5.80;3.63;;;27.30;39.80;;;;;;5041397;28;20470;-70
2023/07/16 12:05:50;;;;;;;9.80;4.17;;;27.20;37.80;;;;;;5042259;28;20453;-69
2023/07/16 12:08:20;;;;;;;8.07;4.33;;;27.30;37.80;;;;;;5042767;28;20467;-70
2023/07/16 12:10:50;;;;;;;5.47;3.43;;;27.20;38.60;;;;;;5043122;28;20533;-69
2023/07/16 12:13:17;;;;;;;10.93;3.73;;;27.40;37.70;;;;;;5042282;28;20454;-69
2023/07/16 12:15:44;;;;;;;6.70;4.00;;;27.20;37.50;;;;;;5043236;28;20447;-69
2023/07/16 12:18:10;;;;;;;5.93;3.63;;;27.30;39.10;;;;;;5042472;28;20439;-68
2023/07/16 12:20:39;;;;;;;9.03;3.50;;;27.40;38.20;;;;;;5042744;28;20498;-68
2023/07/16 12:23:06;;;;;;;5.63;3.20;;;27.60;37.70;;;;;;5042421;28;20458;-69
2023/07/16 12:25:34;;;;;;;7.80;3.33;;;27.50;37.40;;;;;;5042632;28;20458;-68
2023/07/16 12:28:02;;;;;;;5.80;3.80;;;27.30;37.70;;;;;;5042855;28;20442;-69
2023/07/16 12:30:30;;;;;;;5.00;3.57;;;27.10;37.80;;;;;;5039812;28;20466;-68
2023/07/16 12:32:57;;;;;;;7.73;3.97;;;27.00;38.70;;;;;;5041746;28;20469;-69
2023/07/16 12:35:23;;;;;;;5.30;3.40;;;26.90;39.00;;;;;;5041223;28;20443;-69
2023/07/16 12:37:52;;;;;;;6.13;3.40;;;27.00;39.00;;;;;;5041333;28;20461;-69
2023/07/16 12:40:18;;;;;;;6.67;3.37;;;27.00;37.80;;;;;;5041374;28;20490;-68
2023/07/16 12:42:47;;;;;;;4.57;2.57;;;27.30;38.50;;;;;;5040633;28;20451;-69
2023/07/16 12:45:14;;;;;;;7.30;3.27;;;27.10;37.50;;;;;;5042268;28;20524;-69
2023/07/16 12:47:41;;;;;;;6.33;3.30;;;27.00;38.20;;;;;;5041864;28;20446;-68
2023/07/16 12:50:09;;;;;;;5.73;3.63;;;27.00;38.50;;;;;;5039475;28;20831;-69